Time;durP1;ratioP1;P1;durP2;ratioP2;P2;SDS_P1;SDS_P2;PMS_P1;PMS_P2;Temp;Humidity;BMP_temperature;BMP_pressure;BME280_temperature;BME280_humidity;BME280_pressure;Samples;Min_cycle;Max_cycle;Signal;HPM_P1;HPM_P2
2021/12/03 00:01:04;;;;;;;;;29.25;24.00;;;;;;;;5043871;28;62801;-87
2021/12/03 00:03:29;;;;;;;;;28.75;24.50;;;;;;;;5042922;28;62165;-86
2021/12/03 00:05:56;;;;;;;;;35.00;26.00;;;;;;;;5042975;28;62044;-87
2021/12/03 00:08:23;;;;;;;;;33.50;28.25;;;;;;;;5043184;28;61801;-87
2021/12/03 00:10:54;;;;;;;;;39.75;29.00;;;;;;;;5043892;28;61879;-87
2021/12/03 00:13:20;;;;;;;;;30.50;26.50;;;;;;;;5041937;28;62004;-87
2021/12/03 00:15:45;;;;;;;;;40.00;29.75;;;;;;;;5043017;28;61801;-87
2021/12/03 00:18:11;;;;;;;;;29.50;25.75;;;;;;;;5042267;28;61772;-86
2021/12/03 00:20:36;;;;;;;;;32.50;25.00;;;;;;;;5043671;28;61915;-87
2021/12/03 00:23:03;;;;;;;;;29.25;22.25;;;;;;;;5044025;28;62002;-86
2021/12/03 00:25:29;;;;;;;;;30.25;24.75;;;;;;;;5043037;28;61811;-87
2021/12/03 00:27:55;;;;;;;;;26.75;24.00;;;;;;;;5042127;28;62079;-87
2021/12/03 00:30:20;;;;;;;;;32.50;27.75;;;;;;;;5040535;28;61976;-83
2021/12/03 00:32:46;;;;;;;;;28.75;26.75;;;;;;;;5040927;28;61831;-86
2021/12/03 00:35:12;;;;;;;;;25.00;23.75;;;;;;;;5041260;28;61827;-86
2021/12/03 00:37:39;;;;;;;;;32.75;25.50;;;;;;;;5059396;28;61766;-87
2021/12/03 00:40:12;;;;;;;;;23.50;22.25;;;;;;;;5063277;28;61895;-87
2021/12/03 00:42:38;;;;;;;;;28.50;22.25;;;;;;;;5061389;28;62017;-86
2021/12/03 00:45:04;;;;;;;;;36.25;24.75;;;;;;;;5062629;28;61697;-87
2021/12/03 00:47:29;;;;;;;;;29.50;20.50;;;;;;;;5062202;28;62370;-87
2021/12/03 00:49:55;;;;;;;;;26.75;20.00;;;;;;;;5061906;28;61800;-87
2021/12/03 00:52:20;;;;;;;;;28.50;23.25;;;;;;;;5062206;28;61723;-86
2021/12/03 00:54:45;;;;;;;;;32.00;24.50;;;;;;;;5063925;28;61691;-87
2021/12/03 00:57:11;;;;;;;;;45.33;36.00;;;;;;;;5061639;28;62007;-87
2021/12/03 00:59:37;;;;;;;;;67.67;51.00;;;;;;;;5061934;28;64710;-86
2021/12/03 01:02:02;;;;;;;;;76.00;60.33;;;;;;;;5063496;28;61903;-87
2021/12/03 01:04:28;;;;;;;;;91.33;68.67;;;;;;;;5062231;28;61849;-86
2021/12/03 01:06:53;;;;;;;;;95.67;67.00;;;;;;;;5063819;28;61826;-87
2021/12/03 01:09:20;;;;;;;;;94.67;67.00;;;;;;;;5061312;28;61820;-87
2021/12/03 01:11:46;;;;;;;;;78.67;58.33;;;;;;;;5061747;28;62013;-86
2021/12/03 01:14:11;;;;;;;;;65.67;53.33;;;;;;;;5061926;28;61759;-86
2021/12/03 01:16:36;;;;;;;;;73.00;52.67;;;;;;;;5061822;28;62059;-87
2021/12/03 01:19:02;;;;;;;;;71.67;46.33;;;;;;;;5061073;28;61963;-87
2021/12/03 01:21:28;;;;;;;;;49.33;39.33;;;;;;;;5063134;28;62532;-87
2021/12/03 01:23:53;;;;;;;;;59.67;44.67;;;;;;;;5063553;28;61799;-86
2021/12/03 01:26:20;;;;;;;;;58.00;43.00;;;;;;;;5061491;28;62072;-86
2021/12/03 01:28:45;;;;;;;;;39.50;32.50;;;;;;;;5062132;28;62020;-87
2021/12/03 01:31:11;;;;;;;;;27.75;24.25;;;;;;;;5063163;28;61854;-87
2021/12/03 01:33:36;;;;;;;;;41.25;29.50;;;;;;;;5063199;28;62056;-87
2021/12/03 01:36:02;;;;;;;;;31.25;28.50;;;;;;;;5063120;28;61825;-86
2021/12/03 01:38:28;;;;;;;;;27.75;24.00;;;;;;;;5060356;28;62188;-87
2021/12/03 01:40:53;;;;;;;;;25.75;25.25;;;;;;;;5061150;28;61856;-87
2021/12/03 01:43:24;;;;;;;;;22.75;18.00;;;;;;;;5060476;28;61856;-87
2021/12/03 01:45:51;;;;;;;;;28.00;18.00;;;;;;;;5062058;28;62038;-87
2021/12/03 01:48:16;;;;;;;;;23.00;20.50;;;;;;;;5060529;28;63444;-87
2021/12/03 01:50:43;;;;;;;;;25.25;19.75;;;;;;;;5062858;28;61870;-87
2021/12/03 01:53:10;;;;;;;;;23.25;19.25;;;;;;;;5062775;28;61896;-87
2021/12/03 01:55:35;;;;;;;;;25.25;20.50;;;;;;;;5061109;28;62155;-87
2021/12/03 01:58:01;;;;;;;;;19.00;18.25;;;;;;;;5061942;28;63147;-87
2021/12/03 02:00:31;;;;;;;;;27.50;24.75;;;;;;;;5061260;28;61942;-87
2021/12/03 02:02:57;;;;;;;;;22.75;17.50;;;;;;;;5061451;28;62081;-87
2021/12/03 02:05:23;;;;;;;;;17.25;17.25;;;;;;;;5061413;28;61958;-87
2021/12/03 02:07:48;;;;;;;;;28.00;17.50;;;;;;;;5061859;28;62004;-87
2021/12/03 02:10:15;;;;;;;;;26.75;18.75;;;;;;;;5062295;28;61811;-87
2021/12/03 02:12:40;;;;;;;;;19.75;16.50;;;;;;;;5062156;28;61821;-87
2021/12/03 02:15:06;;;;;;;;;20.75;20.00;;;;;;;;5062905;28;61986;-87
2021/12/03 02:17:31;;;;;;;;;22.50;17.00;;;;;;;;5060864;28;62950;-86
2021/12/03 02:19:57;;;;;;;;;17.50;17.50;;;;;;;;5061359;28;61839;-87
2021/12/03 02:22:23;;;;;;;;;17.50;14.25;;;;;;;;5061292;28;61993;-86
2021/12/03 02:24:48;;;;;;;;;21.50;15.00;;;;;;;;5060807;28;61719;-87
2021/12/03 02:27:13;;;;;;;;;20.00;13.00;;;;;;;;5059242;28;61909;-87
2021/12/03 02:29:39;;;;;;;;;17.00;16.00;;;;;;;;5059298;28;62034;-86
2021/12/03 02:32:04;;;;;;;;;12.25;11.50;;;;;;;;5061304;28;61922;-87
2021/12/03 02:34:30;;;;;;;;;18.75;17.00;;;;;;;;5059727;28;61788;-86
2021/12/03 02:36:56;;;;;;;;;16.75;10.75;;;;;;;;5058807;28;62038;-86
2021/12/03 02:39:21;;;;;;;;;14.50;12.50;;;;;;;;5062142;28;61680;-87
2021/12/03 02:41:46;;;;;;;;;17.00;13.00;;;;;;;;5060598;28;61932;-87
2021/12/03 02:44:12;;;;;;;;;19.25;13.75;;;;;;;;5060861;28;62126;-86
2021/12/03 02:46:37;;;;;;;;;13.50;12.50;;;;;;;;5060018;28;62968;-87
2021/12/03 02:49:03;;;;;;;;;14.50;10.75;;;;;;;;5061668;28;61907;-86
2021/12/03 02:51:28;;;;;;;;;9.50;8.50;;;;;;;;5060651;28;62138;-86
2021/12/03 02:53:53;;;;;;;;;16.75;10.50;;;;;;;;5060330;28;62239;-87
2021/12/03 02:56:19;;;;;;;;;19.50;10.75;;;;;;;;5063017;28;63021;-86
2021/12/03 02:58:44;;;;;;;;;13.25;9.50;;;;;;;;5065013;28;61923;-86
2021/12/03 03:01:10;;;;;;;;;10.00;10.00;;;;;;;;5065501;28;61962;-87
2021/12/03 03:03:36;;;;;;;;;10.75;9.50;;;;;;;;5064609;28;62393;-87
2021/12/03 03:06:02;;;;;;;;;11.75;10.75;;;;;;;;5063222;28;63641;-87
2021/12/03 03:08:28;;;;;;;;;14.25;12.25;;;;;;;;5063388;28;62440;-87
2021/12/03 03:10:54;;;;;;;;;12.25;10.00;;;;;;;;5065508;28;61711;-87
2021/12/03 03:13:19;;;;;;;;;10.00;10.00;;;;;;;;5064097;28;62156;-87
2021/12/03 03:15:45;;;;;;;;;8.75;8.75;;;;;;;;5063463;28;62040;-87
2021/12/03 03:18:12;;;;;;;;;9.25;8.00;;;;;;;;5064640;28;61801;-87
2021/12/03 03:20:44;;;;;;;;;12.50;9.00;;;;;;;;5065189;28;61685;-86
2021/12/03 03:23:09;;;;;;;;;13.25;10.75;;;;;;;;5063668;28;61773;-87
2021/12/03 03:25:35;;;;;;;;;13.50;5.00;;;;;;;;5064745;28;61797;-87
2021/12/03 03:28:01;;;;;;;;;10.00;9.75;;;;;;;;5064327;28;61863;-87
2021/12/03 03:30:26;;;;;;;;;10.00;8.50;;;;;;;;5063598;28;61811;-87
2021/12/03 03:32:52;;;;;;;;;9.75;8.00;;;;;;;;5065559;28;62324;-87
2021/12/03 03:35:17;;;;;;;;;11.25;9.50;;;;;;;;5063248;28;62926;-87
2021/12/03 03:37:43;;;;;;;;;13.75;9.25;;;;;;;;5074223;28;62020;-87
2021/12/03 03:40:09;;;;;;;;;12.75;12.75;;;;;;;;5080864;28;62080;-87
2021/12/03 03:42:34;;;;;;;;;8.25;8.00;;;;;;;;5080569;28;61910;-87
2021/12/03 03:45:00;;;;;;;;;9.50;9.50;;;;;;;;5064141;28;62018;-87
2021/12/03 03:47:25;;;;;;;;;13.50;11.75;;;;;;;;5064368;28;61923;-87
2021/12/03 03:49:51;;;;;;;;;12.50;9.75;;;;;;;;5064449;28;61804;-86
2021/12/03 03:52:16;;;;;;;;;12.50;9.50;;;;;;;;5065211;28;61718;-87
2021/12/03 03:54:42;;;;;;;;;14.25;9.75;;;;;;;;5064230;28;61810;-87
2021/12/03 03:57:07;;;;;;;;;12.50;10.00;;;;;;;;5079534;28;61802;-87
2021/12/03 03:59:33;;;;;;;;;13.75;9.00;;;;;;;;5080559;28;61996;-87
2021/12/03 04:01:58;;;;;;;;;12.50;8.75;;;;;;;;5080232;28;62175;-87
2021/12/03 04:04:25;;;;;;;;;9.25;8.25;;;;;;;;5063788;28;61929;-87
2021/12/03 04:06:51;;;;;;;;;12.50;10.25;;;;;;;;5078900;28;61930;-87
2021/12/03 04:09:17;;;;;;;;;11.00;8.00;;;;;;;;5063172;28;61956;-87
2021/12/03 04:11:42;;;;;;;;;12.25;10.00;;;;;;;;5064786;28;61872;-86
2021/12/03 04:14:07;;;;;;;;;16.75;13.75;;;;;;;;5079060;28;61862;-87
2021/12/03 04:16:33;;;;;;;;;10.25;9.00;;;;;;;;5064587;28;61700;-87
2021/12/03 04:18:59;;;;;;;;;4.50;2.75;;;;;;;;5061999;28;62050;-87
2021/12/03 04:21:24;;;;;;;;;10.00;9.00;;;;;;;;5064606;28;62036;-87
2021/12/03 04:23:50;;;;;;;;;10.25;9.00;;;;;;;;5061914;28;62084;-87
2021/12/03 04:26:15;;;;;;;;;8.75;8.00;;;;;;;;5064273;28;62050;-87
2021/12/03 04:28:40;;;;;;;;;11.50;9.50;;;;;;;;5062572;28;62209;-87
2021/12/03 04:31:06;;;;;;;;;10.00;8.50;;;;;;;;5079828;28;62215;-87
2021/12/03 04:33:31;;;;;;;;;10.00;9.00;;;;;;;;5061535;28;63310;-87
2021/12/03 04:35:56;;;;;;;;;8.75;8.75;;;;;;;;5079186;28;61704;-86
2021/12/03 04:38:22;;;;;;;;;9.75;8.00;;;;;;;;5043722;28;62264;-86
2021/12/03 04:40:47;;;;;;;;;7.25;6.00;;;;;;;;5042636;28;62082;-87
2021/12/03 04:43:12;;;;;;;;;8.75;5.75;;;;;;;;5042873;28;61953;-87
2021/12/03 04:45:38;;;;;;;;;13.25;7.75;;;;;;;;5042346;28;61701;-87
2021/12/03 04:48:04;;;;;;;;;9.00;6.50;;;;;;;;5043039;28;61745;-87
2021/12/03 04:50:31;;;;;;;;;6.00;6.00;;;;;;;;5042533;28;62060;-87
2021/12/03 04:52:57;;;;;;;;;7.75;7.75;;;;;;;;5041734;28;62178;-87
2021/12/03 04:55:27;;;;;;;;;9.00;8.75;;;;;;;;5043474;28;61695;-87
2021/12/03 04:57:56;;;;;;;;;8.25;5.00;;;;;;;;5041758;28;61995;-87
2021/12/03 05:00:29;;;;;;;;;6.00;6.00;;;;;;;;5043712;28;61785;-87
2021/12/03 05:02:55;;;;;;;;;10.25;6.00;;;;;;;;5042577;28;62054;-87
2021/12/03 05:05:23;;;;;;;;;8.75;8.75;;;;;;;;5042016;28;61824;-87
2021/12/03 05:07:57;;;;;;;;;8.00;5.75;;;;;;;;5041957;28;61829;-87
2021/12/03 05:10:24;;;;;;;;;6.00;6.00;;;;;;;;5043682;28;61899;-87
2021/12/03 05:12:50;;;;;;;;;12.25;8.25;;;;;;;;5041253;28;62035;-87
2021/12/03 05:15:15;;;;;;;;;10.50;7.50;;;;;;;;5041938;28;62055;-87
2021/12/03 05:17:41;;;;;;;;;14.50;6.00;;;;;;;;5040340;28;61789;-87
2021/12/03 05:20:06;;;;;;;;;10.25;6.00;;;;;;;;5042679;28;61771;-87
2021/12/03 05:22:31;;;;;;;;;19.25;6.75;;;;;;;;5042508;28;61838;-88
2021/12/03 05:24:57;;;;;;;;;6.75;5.50;;;;;;;;5042022;28;61975;-87
2021/12/03 05:27:22;;;;;;;;;9.25;2.00;;;;;;;;5042687;28;62202;-87
2021/12/03 05:29:48;;;;;;;;;4.00;4.00;;;;;;;;5041892;28;62098;-87
2021/12/03 05:32:15;;;;;;;;;5.25;5.25;;;;;;;;5041989;28;61897;-87
2021/12/03 05:34:40;;;;;;;;;5.00;5.00;;;;;;;;5042014;28;61713;-87
2021/12/03 05:37:08;;;;;;;;;6.00;6.00;;;;;;;;5053092;28;62120;-87
2021/12/03 05:39:35;;;;;;;;;7.50;5.50;;;;;;;;5061915;28;62158;-87
2021/12/03 05:42:00;;;;;;;;;8.75;8.00;;;;;;;;5061199;28;62140;-86
2021/12/03 05:44:26;;;;;;;;;8.75;5.50;;;;;;;;5062465;28;62064;-87
2021/12/03 05:46:51;;;;;;;;;6.50;5.00;;;;;;;;5062647;28;61874;-87
2021/12/03 05:49:17;;;;;;;;;9.00;5.25;;;;;;;;5061369;28;62221;-87
2021/12/03 05:51:42;;;;;;;;;8.50;5.00;;;;;;;;5060953;28;63351;-87
2021/12/03 05:54:09;;;;;;;;;9.00;4.25;;;;;;;;5063038;28;61926;-87
2021/12/03 05:56:34;;;;;;;;;4.75;3.75;;;;;;;;5062208;28;62012;-87
2021/12/03 05:59:00;;;;;;;;;5.75;2.00;;;;;;;;5062387;28;61940;-87
2021/12/03 06:01:25;;;;;;;;;4.00;4.00;;;;;;;;5059402;28;62271;-87
2021/12/03 06:03:50;;;;;;;;;6.00;4.75;;;;;;;;5062557;28;61767;-86
2021/12/03 06:06:15;;;;;;;;;3.50;2.00;;;;;;;;5061438;28;62057;-78
2021/12/03 06:08:41;;;;;;;;;8.75;5.75;;;;;;;;5060824;28;62172;-82
2021/12/03 06:11:11;;;;;;;;;6.50;6.00;;;;;;;;5062207;28;63114;-84
2021/12/03 06:13:39;;;;;;;;;4.00;0.00;;;;;;;;5060574;28;62297;-88
2021/12/03 06:16:09;;;;;;;;;5.75;3.25;;;;;;;;5062766;28;62149;-83
2021/12/03 06:18:34;;;;;;;;;10.00;1.75;;;;;;;;5061105;28;61812;-83
2021/12/03 06:21:00;;;;;;;;;3.25;2.00;;;;;;;;5061947;28;62032;-81
2021/12/03 06:23:25;;;;;;;;;5.75;2.75;;;;;;;;5061127;28;61880;-82
2021/12/03 06:25:51;;;;;;;;;3.75;3.25;;;;;;;;5061226;28;61975;-78
2021/12/03 06:28:16;;;;;;;;;5.25;3.25;;;;;;;;5058818;28;62059;-77
2021/12/03 06:30:41;;;;;;;;;2.25;1.75;;;;;;;;5051601;28;62005;-79
2021/12/03 06:33:07;;;;;;;;;9.25;4.25;;;;;;;;5060863;28;61861;-79
2021/12/03 06:35:32;;;;;;;;;3.50;2.50;;;;;;;;5054322;28;61877;-81
2021/12/03 06:37:57;;;;;;;;;6.50;3.75;;;;;;;;5060855;28;62034;-79
2021/12/03 06:40:25;;;;;;;;;5.75;2.75;;;;;;;;5061354;28;61846;-78
2021/12/03 06:42:50;;;;;;;;;6.50;3.00;;;;;;;;5077511;28;62080;-78
2021/12/03 06:45:16;;;;;;;;;2.00;2.00;;;;;;;;5062005;28;61954;-77
2021/12/03 06:47:42;;;;;;;;;5.25;3.50;;;;;;;;5061711;28;62155;-80
2021/12/03 06:50:09;;;;;;;;;3.25;3.25;;;;;;;;5077006;28;63493;-76
2021/12/03 06:52:37;;;;;;;;;2.75;2.75;;;;;;;;5077419;28;61779;-77
2021/12/03 06:55:04;;;;;;;;;4.00;4.00;;;;;;;;5061048;28;62077;-77
2021/12/03 06:57:30;;;;;;;;;5.00;2.00;;;;;;;;5054548;28;61955;-78
2021/12/03 06:59:55;;;;;;;;;4.00;2.00;;;;;;;;5048348;28;62106;-77
2021/12/03 07:02:20;;;;;;;;;5.75;3.25;;;;;;;;5051466;28;61826;-77
2021/12/03 07:04:46;;;;;;;;;5.50;3.25;;;;;;;;5053200;28;61783;-77
2021/12/03 07:07:11;;;;;;;;;5.25;3.25;;;;;;;;5059532;28;61878;-89
2021/12/03 07:09:37;;;;;;;;;4.00;4.00;;;;;;;;5059298;28;63356;-89
2021/12/03 07:12:02;;;;;;;;;5.50;5.00;;;;;;;;5059671;28;61731;-80
2021/12/03 07:14:28;;;;;;;;;3.50;3.50;;;;;;;;5060372;28;61705;-82
2021/12/03 07:16:53;;;;;;;;;5.25;2.00;;;;;;;;5060887;28;61688;-81
2021/12/03 07:19:18;;;;;;;;;3.50;2.00;;;;;;;;5058333;28;63463;-81
2021/12/03 07:21:44;;;;;;;;;8.00;2.50;;;;;;;;5039556;28;62297;-81
2021/12/03 07:24:09;;;;;;;;;3.50;3.25;;;;;;;;5041066;28;61792;-81
2021/12/03 07:26:35;;;;;;;;;5.75;4.00;;;;;;;;5041045;28;61787;-74
2021/12/03 07:29:00;;;;;;;;;2.50;1.00;;;;;;;;5039094;28;61988;-75
2021/12/03 07:31:26;;;;;;;;;6.00;3.25;;;;;;;;5058885;28;61776;-75
2021/12/03 07:33:53;;;;;;;;;6.75;6.75;;;;;;;;5054338;28;61996;-75
2021/12/03 07:36:19;;;;;;;;;2.00;2.00;;;;;;;;5053745;28;62093;-76
2021/12/03 07:38:44;;;;;;;;;2.75;2.50;;;;;;;;5058621;28;61960;-75
2021/12/03 07:41:10;;;;;;;;;5.75;2.75;;;;;;;;5075834;28;62128;-74
2021/12/03 07:43:35;;;;;;;;;2.00;2.00;;;;;;;;5062569;28;61975;-75
2021/12/03 07:46:02;;;;;;;;;3.50;1.75;;;;;;;;5062084;28;62092;-74
2021/12/03 07:48:27;;;;;;;;;3.25;2.00;;;;;;;;5062741;28;62015;-75
2021/12/03 07:50:53;;;;;;;;;6.25;3.00;;;;;;;;5062671;28;62134;-76
2021/12/03 07:53:19;;;;;;;;;2.25;2.25;;;;;;;;5063706;28;62519;-76
2021/12/03 07:55:47;;;;;;;;;10.50;3.50;;;;;;;;5051108;28;61941;-82
2021/12/03 07:58:13;;;;;;;;;1.00;1.00;;;;;;;;5048150;28;62174;-75
2021/12/03 08:00:39;;;;;;;;;2.00;2.00;;;;;;;;5054136;28;62246;-75
2021/12/03 08:03:04;;;;;;;;;2.75;2.00;;;;;;;;5048766;28;62242;-76
2021/12/03 08:05:29;;;;;;;;;2.00;2.00;;;;;;;;5043970;28;61879;-76
2021/12/03 08:07:55;;;;;;;;;2.00;0.75;;;;;;;;5042641;28;62825;-75
2021/12/03 08:10:20;;;;;;;;;5.50;2.00;;;;;;;;5046554;28;61835;-76
2021/12/03 08:12:46;;;;;;;;;2.00;2.00;;;;;;;;5062613;28;61857;-75
2021/12/03 08:15:12;;;;;;;;;6.00;4.50;;;;;;;;5063395;28;61833;-75
2021/12/03 08:17:37;;;;;;;;;2.50;1.50;;;;;;;;5060966;28;62066;-76
2021/12/03 08:20:04;;;;;;;;;11.75;2.25;;;;;;;;5063181;28;61696;-75
2021/12/03 08:22:29;;;;;;;;;3.00;1.25;;;;;;;;5063607;28;61942;-76
2021/12/03 08:24:54;;;;;;;;;3.00;3.00;;;;;;;;5062140;28;61942;-76
2021/12/03 08:27:20;;;;;;;;;2.00;2.00;;;;;;;;5060565;28;63614;-76
2021/12/03 08:29:45;;;;;;;;;2.00;2.00;;;;;;;;5061405;28;62242;-76
2021/12/03 08:32:11;;;;;;;;;4.00;1.00;;;;;;;;5061848;28;61849;-75
2021/12/03 08:34:36;;;;;;;;;3.75;2.75;;;;;;;;5063676;28;61941;-75
2021/12/03 08:37:02;;;;;;;;;2.00;2.00;;;;;;;;5062231;28;61936;-76
2021/12/03 08:39:29;;;;;;;;;5.00;3.00;;;;;;;;5061429;28;61942;-76
2021/12/03 08:41:55;;;;;;;;;3.00;2.75;;;;;;;;5061249;28;62027;-76
2021/12/03 08:44:21;;;;;;;;;6.00;2.50;;;;;;;;5061395;28;62040;-75
2021/12/03 08:46:48;;;;;;;;;3.00;3.00;;;;;;;;5061092;28;63404;-76
2021/12/03 08:49:17;;;;;;;;;3.50;2.25;;;;;;;;5061393;28;61893;-76
2021/12/03 08:56:52;;;;;;;;;5.00;2.00;;;;;;;;5062417;28;61916;-75
2021/12/03 08:59:18;;;;;;;;;8.50;5.00;;;;;;;;5060700;28;62073;-75
2021/12/03 09:01:44;;;;;;;;;10.00;3.50;;;;;;;;5061447;28;61903;-75
2021/12/03 09:04:10;;;;;;;;;5.00;3.00;;;;;;;;5062799;28;62117;-75
2021/12/03 09:06:35;;;;;;;;;5.75;5.00;;;;;;;;5060898;28;61777;-75
2021/12/03 09:09:00;;;;;;;;;6.25;4.00;;;;;;;;5060906;28;61821;-75
2021/12/03 09:11:28;;;;;;;;;6.00;2.50;;;;;;;;5051496;28;61833;-75
2021/12/03 09:13:53;;;;;;;;;4.75;4.75;;;;;;;;5041929;28;62189;-75
2021/12/03 09:16:20;;;;;;;;;6.25;6.00;;;;;;;;5041640;28;62688;-75
2021/12/03 09:18:47;;;;;;;;;6.75;3.00;;;;;;;;5048416;28;61983;-76
2021/12/03 09:21:31;;;;;;;;;4.50;3.50;;;;;;;;5060894;28;61939;-75
2021/12/03 09:24:06;;;;;;;;;4.50;4.50;;;;;;;;5062073;28;61786;-75
2021/12/03 09:26:34;;;;;;;;;7.50;3.00;;;;;;;;5060219;28;63342;-75
2021/12/03 09:29:05;;;;;;;;;5.75;4.00;;;;;;;;5061795;28;61934;-76
2021/12/03 09:31:33;;;;;;;;;10.50;3.00;;;;;;;;5062055;28;62009;-75
2021/12/03 09:33:59;;;;;;;;;3.50;3.50;;;;;;;;5061141;28;62113;-75
2021/12/03 09:36:24;;;;;;;;;4.50;4.50;;;;;;;;5060714;28;62773;-75
2021/12/03 09:38:50;;;;;;;;;3.75;2.00;;;;;;;;5061398;28;62014;-75
2021/12/03 09:41:17;;;;;;;;;8.25;6.25;;;;;;;;5061877;28;61731;-75
2021/12/03 09:43:45;;;;;;;;;8.25;5.00;;;;;;;;5062096;28;61918;-76
2021/12/03 09:51:21;;;;;;;;;3.00;2.00;;;;;;;;5062114;28;61963;-75
2021/12/03 09:54:15;;;;;;;;;9.50;5.00;;;;;;;;5061658;28;61937;-76
2021/12/03 09:56:38;;;;;;;;;6.25;5.00;;;;;;;;5060846;28;61763;-75
2021/12/03 10:02:03;;;;;;;;;7.00;6.00;;;;;;;;5061769;28;61817;-75
2021/12/03 10:15:33;;;;;;;;;5.00;5.00;;;;;;;;5061729;28;61747;-75
2021/12/03 10:35:04;;;;;;;;;1.00;1.00;;;;;;;;4999137;28;62207;-76
2021/12/03 10:43:20;;;;;;;;;7.00;6.00;;;;;;;;4998438;28;61932;-75
2021/12/03 10:51:44;;;;;;;;;6.00;5.00;;;;;;;;4997969;28;62677;-76
2021/12/03 10:54:25;;;;;;;;;7.75;7.25;;;;;;;;4998857;28;61921;-76
2021/12/03 11:18:51;;;;;;;;;8.25;6.00;;;;;;;;5046425;28;61789;-78
2021/12/03 12:00:27;;;;;;;;;8.50;5.50;;;;;;;;4981334;28;62169;-79
2021/12/03 12:18:07;;;;;;;;;5.00;5.00;;;;;;;;4982188;28;61803;-87
2021/12/03 12:32:34;;;;;;;;;9.00;5.50;;;;;;;;4998283;28;61864;-85
2021/12/03 13:21:58;;;;;;;;;3.00;3.00;;;;;;;;4999012;28;62349;-83
2021/12/03 13:31:25;;;;;;;;;3.00;2.00;;;;;;;;5053186;28;61822;-83
2021/12/03 13:33:15;;;;;;;;;2.50;2.50;;;;;;;;5056655;28;61883;-82
2021/12/03 15:32:35;;;;;;;;;6.25;3.25;;;;;;;;5024570;28;62011;-85
2021/12/03 15:40:38;;;;;;;;;3.00;3.00;;;;;;;;5022733;28;62144;-79
2021/12/03 16:04:22;;;;;;;;;2.75;2.75;;;;;;;;5022192;28;61936;-80
2021/12/03 16:17:39;;;;;;;;;2.00;2.00;;;;;;;;5021722;28;62543;-81
2021/12/03 16:47:31;;;;;;;;;1.75;1.75;;;;;;;;5063006;28;62235;-81
2021/12/03 16:50:29;;;;;;;;;3.00;1.00;;;;;;;;5057031;28;62007;-81
2021/12/03 16:52:52;;;;;;;;;1.00;1.00;;;;;;;;5043363;28;61746;-80
2021/12/03 16:55:18;;;;;;;;;1.50;1.50;;;;;;;;5044320;28;62024;-80
2021/12/03 16:57:45;;;;;;;;;2.75;1.75;;;;;;;;5044701;28;61681;-79
2021/12/03 17:00:25;;;;;;;;;3.00;1.00;;;;;;;;5060568;28;63140;-79
2021/12/03 17:03:08;;;;;;;;;1.00;1.00;;;;;;;;5061041;28;62274;-85
2021/12/03 17:05:55;;;;;;;;;2.00;2.00;;;;;;;;5061306;28;61907;-78
2021/12/03 17:08:32;;;;;;;;;1.00;1.00;;;;;;;;5060298;28;62135;-80
2021/12/03 17:24:31;;;;;;;;;2.75;2.75;;;;;;;;5056472;28;61767;-78
2021/12/03 17:46:27;;;;;;;;;5.50;3.00;;;;;;;;5017872;28;61899;-81
2021/12/03 17:56:48;;;;;;;;;7.75;3.00;;;;;;;;5012621;28;62368;-80
2021/12/03 17:59:32;;;;;;;;;2.50;2.50;;;;;;;;5014816;28;61946;-80
2021/12/03 18:11:16;;;;;;;;;6.25;5.25;;;;;;;;4978531;28;61837;-89
2021/12/03 18:57:07;;;;;;;;;20.75;18.50;;;;;;;;4980251;28;61990;-83
2021/12/03 18:59:56;;;;;;;;;16.75;15.75;;;;;;;;4978572;28;62716;-80
2021/12/03 19:02:24;;;;;;;;;14.50;13.00;;;;;;;;5057051;28;61790;-80
2021/12/03 19:05:30;;;;;;;;;23.75;19.00;;;;;;;;5061535;28;61885;-79
2021/12/03 19:07:49;;;;;;;;;20.00;15.00;;;;;;;;5055379;28;62319;-78
2021/12/03 19:10:26;;;;;;;;;20.25;18.00;;;;;;;;5059515;28;61910;-76
2021/12/03 19:13:06;;;;;;;;;22.50;20.00;;;;;;;;5058890;28;61774;-77
2021/12/03 19:15:33;;;;;;;;;18.75;17.00;;;;;;;;5057345;28;62209;-77
2021/12/03 19:18:01;;;;;;;;;19.00;16.50;;;;;;;;5057324;28;62129;-78
2021/12/03 19:20:30;;;;;;;;;15.25;12.00;;;;;;;;5056115;28;64472;-78
2021/12/03 19:22:55;;;;;;;;;29.00;21.75;;;;;;;;5059826;28;62143;-77
2021/12/03 19:25:20;;;;;;;;;15.00;13.00;;;;;;;;5051559;28;62185;-79
2021/12/03 19:27:46;;;;;;;;;15.00;14.00;;;;;;;;5054839;28;62063;-75
2021/12/03 19:30:11;;;;;;;;;15.75;14.00;;;;;;;;5056103;28;61910;-82
2021/12/03 19:32:37;;;;;;;;;17.75;13.25;;;;;;;;5059758;28;62060;-81
2021/12/03 19:35:02;;;;;;;;;19.25;16.00;;;;;;;;5061985;28;61830;-83
2021/12/03 19:37:29;;;;;;;;;24.50;24.00;;;;;;;;5048651;28;61843;-82
2021/12/03 19:39:55;;;;;;;;;18.00;15.75;;;;;;;;5042644;28;61846;-85
2021/12/03 19:42:27;;;;;;;;;16.00;15.25;;;;;;;;5043574;28;62120;-87
2021/12/03 19:44:58;;;;;;;;;15.75;10.25;;;;;;;;5049171;28;62140;-81
2021/12/03 19:47:34;;;;;;;;;15.75;13.75;;;;;;;;5062784;28;62125;-83
2021/12/03 19:52:53;;;;;;;;;10.25;7.00;;;;;;;;5063997;28;62053;-77
2021/12/03 19:55:18;;;;;;;;;12.50;9.75;;;;;;;;5063476;28;61898;-80
2021/12/03 19:57:44;;;;;;;;;13.50;12.25;;;;;;;;5058494;28;61769;-88
2021/12/03 20:00:10;;;;;;;;;17.25;17.25;;;;;;;;5056387;28;64581;-87
2021/12/03 20:02:36;;;;;;;;;16.50;16.50;;;;;;;;5056976;28;62005;-88
2021/12/03 20:05:03;;;;;;;;;18.00;13.50;;;;;;;;5056289;28;62032;-89
2021/12/03 20:07:28;;;;;;;;;18.00;16.75;;;;;;;;5053983;28;62262;-88
2021/12/03 20:12:39;;;;;;;;;12.25;9.50;;;;;;;;5055247;28;61861;-83
2021/12/03 20:15:08;;;;;;;;;9.50;7.75;;;;;;;;5056955;28;62824;-82
2021/12/03 20:17:48;;;;;;;;;7.75;7.75;;;;;;;;5058964;28;62230;-82
2021/12/03 20:20:17;;;;;;;;;10.50;9.00;;;;;;;;5058523;28;62174;-81
2021/12/03 20:22:56;;;;;;;;;11.50;10.25;;;;;;;;5057253;28;61877;-82
2021/12/03 20:28:05;;;;;;;;;7.25;7.00;;;;;;;;5049201;28;62425;-82
2021/12/03 20:30:43;;;;;;;;;13.00;10.25;;;;;;;;5054369;28;61933;-82
2021/12/03 20:38:07;;;;;;;;;9.00;7.50;;;;;;;;5056425;28;61886;-84
2021/12/03 20:40:34;;;;;;;;;21.00;14.75;;;;;;;;5051242;28;63125;-79
2021/12/03 20:45:50;;;;;;;;;9.50;9.50;;;;;;;;5053474;28;63380;-82
2021/12/03 21:09:49;;;;;;;;;16.00;11.75;;;;;;;;4999398;28;62039;-78
2021/12/03 21:12:29;;;;;;;;;9.50;8.50;;;;;;;;4996636;28;62086;-78
2021/12/03 21:15:02;;;;;;;;;12.00;10.75;;;;;;;;4997637;28;62002;-78
2021/12/03 21:20:05;;;;;;;;;10.50;10.50;;;;;;;;4997902;28;62420;-78
2021/12/03 21:22:34;;;;;;;;;12.25;11.75;;;;;;;;4997808;28;63706;-78
2021/12/03 21:25:05;;;;;;;;;6.00;6.00;;;;;;;;4981301;28;61954;-78
2021/12/03 21:27:41;;;;;;;;;12.50;12.50;;;;;;;;4997378;28;61957;-78
2021/12/03 21:41:28;;;;;;;;;7.00;7.00;;;;;;;;5028718;28;61657;-78
2021/12/03 21:43:53;;;;;;;;;12.50;11.50;;;;;;;;5059335;28;62101;-78
2021/12/03 21:46:24;;;;;;;;;13.75;11.75;;;;;;;;5057928;28;61720;-78
2021/12/03 21:48:49;;;;;;;;;12.25;11.00;;;;;;;;5058192;28;61684;-78
2021/12/03 21:51:15;;;;;;;;;11.25;8.25;;;;;;;;5060247;28;61934;-78
2021/12/03 21:53:40;;;;;;;;;9.50;7.00;;;;;;;;5059477;28;63147;-78
2021/12/03 21:56:06;;;;;;;;;6.25;6.00;;;;;;;;5060146;28;62113;-78
2021/12/03 21:58:31;;;;;;;;;8.75;8.50;;;;;;;;5060608;28;61771;-78
2021/12/03 22:00:57;;;;;;;;;10.00;8.50;;;;;;;;5047308;28;62100;-78
2021/12/03 22:03:22;;;;;;;;;7.75;7.75;;;;;;;;5061641;28;62060;-78
2021/12/03 22:05:50;;;;;;;;;10.75;7.25;;;;;;;;5061087;28;61922;-78
2021/12/03 22:08:16;;;;;;;;;10.50;8.75;;;;;;;;5062330;28;61984;-78
2021/12/03 22:10:41;;;;;;;;;12.50;11.25;;;;;;;;5062369;28;61841;-78
2021/12/03 22:13:08;;;;;;;;;10.50;10.50;;;;;;;;5055289;28;61970;-78
2021/12/03 22:15:33;;;;;;;;;8.00;8.00;;;;;;;;5052540;28;61954;-78
2021/12/03 22:17:59;;;;;;;;;17.00;16.50;;;;;;;;5060424;28;61830;-78
2021/12/03 22:20:24;;;;;;;;;22.75;16.00;;;;;;;;5061765;28;61870;-78
2021/12/03 22:22:49;;;;;;;;;15.75;12.25;;;;;;;;5060189;28;62062;-78
2021/12/03 22:25:14;;;;;;;;;19.75;16.00;;;;;;;;5061202;28;62153;-74
2021/12/03 22:27:40;;;;;;;;;12.50;12.50;;;;;;;;5061090;28;61846;-75
2021/12/03 22:30:05;;;;;;;;;14.00;12.25;;;;;;;;5061405;28;61728;-82
2021/12/03 22:32:30;;;;;;;;;11.75;11.50;;;;;;;;5061063;28;61731;-83
2021/12/03 22:34:56;;;;;;;;;13.00;12.25;;;;;;;;5060094;28;61828;-83
2021/12/03 22:37:22;;;;;;;;;20.00;12.75;;;;;;;;5060945;28;61827;-82
2021/12/03 22:39:47;;;;;;;;;14.50;13.00;;;;;;;;5060052;28;61945;-82
2021/12/03 22:42:12;;;;;;;;;7.25;7.25;;;;;;;;5059367;28;63339;-82
2021/12/03 22:44:38;;;;;;;;;8.50;8.25;;;;;;;;5060900;28;62238;-83
2021/12/03 22:47:16;;;;;;;;;8.25;7.50;;;;;;;;5061598;28;61902;-83
2021/12/03 22:52:17;;;;;;;;;12.50;7.75;;;;;;;;5060257;28;62086;-81
2021/12/03 22:54:45;;;;;;;;;9.00;9.00;;;;;;;;5060208;28;62302;-83
2021/12/03 22:57:12;;;;;;;;;8.50;6.75;;;;;;;;5061603;28;61849;-83
2021/12/03 22:59:38;;;;;;;;;10.25;8.00;;;;;;;;5061503;28;62001;-83
2021/12/03 23:02:04;;;;;;;;;14.00;7.75;;;;;;;;5060955;28;61822;-83
2021/12/03 23:04:33;;;;;;;;;6.00;6.00;;;;;;;;5061522;28;62116;-83
2021/12/03 23:06:59;;;;;;;;;7.00;6.00;;;;;;;;5060294;28;61987;-82
2021/12/03 23:09:25;;;;;;;;;7.25;7.00;;;;;;;;5061435;28;61843;-83
2021/12/03 23:11:51;;;;;;;;;10.00;8.75;;;;;;;;5059187;28;62885;-83
2021/12/03 23:14:16;;;;;;;;;7.50;7.50;;;;;;;;5064982;28;61710;-83